createdAt,value
2022-08-11T00:00:04.282Z,27
2022-08-11T00:00:14.231Z,27
2022-08-11T00:00:24.206Z,27
2022-08-11T00:00:34.698Z,27
2022-08-11T00:00:44.148Z,27
2022-08-11T00:00:54.225Z,26.9
2022-08-11T00:01:04.242Z,27
2022-08-11T00:01:14.178Z,27
2022-08-11T00:01:24.193Z,27
2022-08-11T00:01:34.210Z,26.9
2022-08-11T00:01:45.297Z,27
2022-08-11T00:01:54.234Z,27
2022-08-11T00:02:04.260Z,26.9
2022-08-11T00:02:15.328Z,26.9
2022-08-11T00:02:24.302Z,26.9
2022-08-11T00:02:34.426Z,27
2022-08-11T00:02:44.289Z,27
2022-08-11T00:02:54.854Z,27
2022-08-11T00:03:04.739Z,26.9
2022-08-11T00:03:24.419Z,27
2022-08-11T00:03:43.829Z,26.9
2022-08-11T00:03:44.377Z,26.9
2022-08-11T00:03:54.366Z,26.9
2022-08-11T00:04:04.399Z,26.9
2022-08-11T00:04:14.383Z,27
2022-08-11T00:04:24.684Z,26.9
2022-08-11T00:04:34.444Z,26.9
2022-08-11T00:04:44.451Z,26.9
2022-08-11T00:04:54.447Z,26.9
2022-08-11T00:05:04.468Z,26.9
2022-08-11T00:05:14.469Z,26.9
2022-08-11T00:05:24.484Z,26.9
2022-08-11T00:05:34.541Z,26.9
2022-08-11T00:05:44.558Z,26.9
2022-08-11T00:05:54.560Z,26.9
2022-08-11T00:06:04.548Z,26.9
2022-08-11T00:06:14.549Z,26.9
2022-08-11T00:06:24.559Z,26.9
2022-08-11T00:06:34.569Z,26.9
2022-08-11T00:06:44.587Z,26.9
2022-08-11T00:06:54.684Z,26.9
2022-08-11T00:07:04.660Z,26.9
2022-08-11T00:07:14.652Z,26.9
2022-08-11T00:07:24.659Z,26.9
2022-08-11T00:07:34.645Z,26.9
2022-08-11T00:07:44.802Z,26.9
2022-08-11T00:07:54.680Z,26.9
2022-08-11T00:08:04.675Z,26.9
2022-08-11T00:08:14.698Z,26.9
2022-08-11T00:08:24.707Z,26.9
2022-08-11T00:08:34.723Z,26.9
2022-08-11T00:08:44.736Z,26.9
2022-08-11T00:08:54.747Z,26.9
2022-08-11T00:09:04.777Z,26.9
2022-08-11T00:09:14.765Z,26.9
2022-08-11T00:09:24.819Z,26.9
2022-08-11T00:09:39.673Z,26.9
2022-08-11T00:09:44.824Z,26.9
2022-08-11T00:09:54.814Z,26.9
2022-08-11T00:10:04.816Z,26.9
2022-08-11T00:10:14.847Z,26.9
2022-08-11T00:10:24.952Z,26.9
2022-08-11T00:10:34.888Z,26.9
2022-08-11T00:10:44.861Z,26.9
2022-08-11T00:10:54.877Z,26.9
2022-08-11T00:11:04.900Z,26.9
2022-08-11T00:11:14.950Z,26.9
2022-08-11T00:11:26.975Z,26.9
2022-08-11T00:11:34.948Z,26.9
2022-08-11T00:11:44.943Z,26.9
2022-08-11T00:11:58.559Z,26.9
2022-08-11T00:12:04.978Z,26.9
2022-08-11T00:12:15.006Z,26.9
2022-08-11T00:12:25.002Z,26.9
2022-08-11T00:12:34.997Z,26.9
2022-08-11T00:12:45.003Z,26.9
2022-08-11T00:12:55.012Z,26.9
2022-08-11T00:13:05.276Z,26.9
2022-08-11T00:13:25.095Z,26.9
2022-08-11T00:13:55.148Z,26.9
2022-08-11T00:14:05.102Z,26.9
2022-08-11T00:14:15.325Z,26.9
2022-08-11T00:14:25.129Z,26.9
2022-08-11T00:14:37.065Z,26.9
2022-08-11T00:14:45.176Z,26.9
2022-08-11T00:14:55.161Z,26.9
2022-08-11T00:15:05.201Z,26.9
2022-08-11T00:15:15.174Z,26.9
2022-08-11T00:15:25.192Z,26.9
2022-08-11T00:15:35.321Z,26.9
2022-08-11T00:15:45.262Z,26.8
2022-08-11T00:15:55.213Z,26.9
2022-08-11T00:16:05.231Z,26.9
2022-08-11T00:16:15.299Z,26.9
2022-08-11T00:16:25.267Z,26.8
2022-08-11T00:16:35.282Z,26.9
2022-08-11T00:16:45.420Z,26.9
2022-08-11T00:16:55.330Z,26.9
2022-08-11T00:17:05.309Z,26.8
2022-08-11T00:17:15.329Z,26.9
2022-08-11T00:17:25.334Z,26.8
2022-08-11T00:17:35.352Z,26.9
2022-08-11T00:17:45.356Z,26.8
2022-08-11T00:17:55.352Z,26.9
2022-08-11T00:18:05.393Z,26.9
2022-08-11T00:18:15.391Z,26.9
2022-08-11T00:18:25.417Z,26.8
2022-08-11T00:18:35.417Z,26.8
2022-08-11T00:18:45.493Z,26.8
2022-08-11T00:18:55.449Z,26.9
2022-08-11T00:19:05.648Z,26.8
2022-08-11T00:19:15.466Z,26.8
2022-08-11T00:20:11.645Z,26.9
2022-08-11T00:20:14.133Z,26.8
2022-08-11T00:20:14.134Z,26.8
2022-08-11T00:20:14.998Z,26.8
2022-08-11T00:20:17.084Z,26.8
2022-08-11T00:20:25.529Z,26.8
2022-08-11T00:20:36.648Z,26.8
2022-08-11T00:20:45.889Z,26.9
2022-08-11T00:20:55.670Z,26.8
2022-08-11T00:21:05.663Z,26.8
2022-08-11T00:21:15.620Z,26.8
2022-08-11T00:22:01.886Z,26.8
2022-08-11T00:22:04.661Z,26.8
2022-08-11T00:22:05.062Z,26.8
2022-08-11T00:22:05.275Z,26.8
2022-08-11T00:22:06.204Z,26.8
2022-08-11T00:22:15.898Z,26.8
2022-08-11T00:22:25.791Z,26.8
2022-08-11T00:22:35.805Z,26.8
2022-08-11T00:22:45.714Z,26.8
2022-08-11T00:22:55.729Z,26.8
2022-08-11T00:23:05.752Z,26.8
2022-08-11T00:23:18.269Z,26.8
2022-08-11T00:23:25.747Z,26.8
2022-08-11T00:23:35.805Z,26.8
2022-08-11T00:23:46.113Z,26.8
2022-08-11T00:23:55.819Z,26.8
2022-08-11T00:24:05.817Z,26.8
2022-08-11T00:24:15.873Z,26.8
2022-08-11T00:24:25.840Z,26.9
2022-08-11T00:24:52.088Z,26.8
2022-08-11T00:24:53.457Z,26.9
2022-08-11T00:25:00.000Z,26.8
2022-08-11T00:25:15.986Z,26.8
2022-08-11T00:25:27.937Z,26.8
2022-08-11T00:25:35.927Z,26.8
2022-08-11T00:25:45.907Z,26.9
2022-08-11T00:25:55.895Z,26.8
2022-08-11T00:26:05.912Z,26.8
2022-08-11T00:26:15.939Z,26.8
2022-08-11T00:26:25.979Z,26.8
2022-08-11T00:26:35.995Z,26.8
2022-08-11T00:26:46.050Z,26.8
2022-08-11T00:26:56.023Z,26.8
2022-08-11T00:27:06.054Z,26.8
2022-08-11T00:27:16.019Z,26.9
2022-08-11T00:27:26.054Z,26.9
2022-08-11T00:27:36.053Z,26.8
2022-08-11T00:27:46.043Z,26.9
2022-08-11T00:27:56.061Z,26.9
2022-08-11T00:28:06.064Z,26.8
2022-08-11T00:28:16.054Z,26.8
2022-08-11T00:28:27.131Z,26.9
2022-08-11T00:28:36.095Z,26.8
2022-08-11T00:28:46.111Z,26.8
2022-08-11T00:28:56.156Z,26.8
2022-08-11T00:29:06.134Z,26.8
2022-08-11T00:29:16.151Z,26.8
2022-08-11T00:29:26.169Z,26.9
2022-08-11T00:29:36.162Z,26.8
2022-08-11T00:29:51.664Z,26.8
2022-08-11T00:29:56.209Z,26.8
2022-08-11T00:30:06.247Z,26.9
2022-08-11T00:30:16.237Z,26.9
2022-08-11T00:30:26.254Z,26.8
2022-08-11T00:30:36.246Z,26.9
2022-08-11T00:30:46.282Z,26.9
2022-08-11T00:31:06.356Z,26.8
2022-08-11T00:31:16.365Z,26.8
2022-08-11T00:31:26.307Z,26.8
2022-08-11T00:31:36.360Z,26.8
2022-08-11T00:31:46.413Z,26.8
2022-08-11T00:31:56.399Z,26.8
2022-08-11T00:32:06.362Z,26.8
2022-08-11T00:32:16.381Z,26.8
2022-08-11T00:32:26.454Z,26.8
2022-08-11T00:32:36.658Z,26.8
2022-08-11T00:32:46.451Z,26.8
2022-08-11T00:33:01.439Z,26.8
2022-08-11T00:33:06.442Z,26.8
2022-08-11T00:33:16.443Z,26.8
2022-08-11T00:33:44.288Z,26.8
2022-08-11T00:33:44.914Z,26.8
2022-08-11T00:33:46.487Z,26.8
2022-08-11T00:33:56.497Z,26.8
2022-08-11T00:34:06.514Z,26.8
2022-08-11T00:34:16.511Z,26.8
2022-08-11T00:34:26.535Z,26.8
2022-08-11T00:34:36.595Z,26.8
2022-08-11T00:34:47.659Z,26.8
2022-08-11T00:35:51.250Z,26.8
2022-08-11T00:35:51.414Z,26.8
2022-08-11T00:35:51.589Z,26.8
2022-08-11T00:35:52.435Z,26.8
2022-08-11T00:35:53.848Z,26.8
2022-08-11T00:35:54.181Z,26.8
2022-08-11T00:35:57.882Z,26.8
2022-08-11T00:36:06.678Z,26.8
2022-08-11T00:36:18.892Z,26.8
2022-08-11T00:36:26.656Z,26.8
2022-08-11T00:36:36.683Z,26.8
2022-08-11T00:36:46.682Z,26.8
2022-08-11T00:36:56.703Z,26.8
2022-08-11T00:37:06.963Z,26.8
2022-08-11T00:37:16.712Z,26.8
2022-08-11T00:37:26.789Z,26.8
2022-08-11T00:37:36.743Z,26.8
2022-08-11T00:37:47.749Z,26.8
2022-08-11T00:38:06.841Z,26.8
2022-08-11T00:38:16.773Z,26.8
2022-08-11T00:38:26.788Z,26.8
2022-08-11T00:38:36.833Z,26.8
2022-08-11T00:38:46.799Z,26.7
2022-08-11T00:38:56.832Z,26.7
2022-08-11T00:39:06.899Z,26.7
2022-08-11T00:39:16.917Z,26.8
2022-08-11T00:39:28.942Z,26.8
2022-08-11T00:39:36.958Z,26.8
2022-08-11T00:39:46.946Z,26.8
2022-08-11T00:39:56.981Z,26.8
2022-08-11T00:40:06.900Z,26.8
2022-08-11T00:40:16.918Z,26.7
2022-08-11T00:40:26.916Z,26.8
2022-08-11T00:40:36.968Z,26.8
2022-08-11T00:40:47.003Z,26.8
2022-08-11T00:40:56.953Z,26.8
2022-08-11T00:41:06.971Z,26.7
2022-08-11T00:41:17.092Z,26.8
2022-08-11T00:41:27.003Z,26.8
2022-08-11T00:41:37.086Z,26.7
2022-08-11T00:41:47.062Z,26.8
2022-08-11T00:41:57.058Z,26.8
2022-08-11T00:42:07.121Z,26.7
2022-08-11T00:42:17.097Z,26.7
2022-08-11T00:42:27.062Z,26.7
2022-08-11T00:42:37.233Z,26.7
2022-08-11T00:42:47.101Z,26.7
2022-08-11T00:42:57.157Z,26.8
2022-08-11T00:43:07.120Z,26.8
2022-08-11T00:43:27.138Z,26.8
2022-08-11T00:43:37.142Z,26.7
2022-08-11T00:43:47.172Z,26.8
2022-08-11T00:43:57.179Z,26.7
2022-08-11T00:44:07.237Z,26.7
2022-08-11T00:44:17.180Z,26.7
2022-08-11T00:44:27.334Z,26.8
2022-08-11T00:44:37.218Z,26.7
2022-08-11T00:44:47.228Z,26.7
2022-08-11T00:44:57.257Z,26.7
2022-08-11T00:45:07.325Z,26.7
2022-08-11T00:45:17.273Z,26.7
2022-08-11T00:45:27.274Z,26.7
2022-08-11T00:45:37.365Z,26.7
2022-08-11T00:45:47.350Z,26.7
2022-08-11T00:45:57.308Z,26.7
2022-08-11T00:46:07.318Z,26.7
2022-08-11T00:46:17.349Z,26.7
2022-08-11T00:46:37.352Z,26.7
2022-08-11T00:47:15.797Z,26.7
2022-08-11T00:47:17.393Z,26.7
2022-08-11T00:47:27.409Z,26.7
2022-08-11T00:47:37.481Z,26.7
2022-08-11T00:47:47.440Z,26.7
2022-08-11T00:47:58.434Z,26.7
2022-08-11T00:48:07.506Z,26.7
2022-08-11T00:48:17.467Z,26.7
2022-08-11T00:48:27.503Z,26.7
2022-08-11T00:48:37.487Z,26.7
2022-08-11T00:48:57.510Z,26.7
2022-08-11T00:49:07.533Z,26.7
2022-08-11T00:49:17.547Z,26.7
2022-08-11T00:49:27.545Z,26.7
2022-08-11T00:49:37.570Z,26.7
2022-08-11T00:49:47.575Z,26.7
2022-08-11T00:49:57.595Z,26.7
2022-08-11T00:50:07.597Z,26.7
2022-08-11T00:50:17.615Z,26.7
2022-08-11T00:50:27.623Z,26.7
2022-08-11T00:50:37.630Z,26.7
2022-08-11T00:50:47.675Z,26.8
2022-08-11T00:50:57.663Z,26.7
2022-08-11T00:51:07.762Z,26.7
2022-08-11T00:51:22.711Z,26.7
2022-08-11T00:51:27.740Z,26.7
2022-08-11T00:52:03.774Z,26.7
2022-08-11T00:52:05.376Z,26.7
2022-08-11T00:52:05.385Z,26.7
2022-08-11T00:52:07.747Z,26.7
2022-08-11T00:52:17.742Z,26.8
2022-08-11T00:52:27.888Z,26.7
2022-08-11T00:52:38.005Z,26.7
2022-08-11T00:52:47.783Z,26.7
2022-08-11T00:52:57.794Z,26.7
2022-08-11T00:53:07.937Z,26.7
2022-08-11T00:53:19.050Z,26.7
2022-08-11T00:53:27.827Z,26.7
2022-08-11T00:53:37.931Z,26.7
2022-08-11T00:53:47.860Z,26.7
2022-08-11T00:53:57.871Z,26.7
2022-08-11T00:54:07.886Z,26.7
2022-08-11T00:54:17.893Z,26.7
2022-08-11T00:54:27.905Z,26.7
2022-08-11T00:54:37.924Z,26.7
2022-08-11T00:54:48.003Z,26.7
2022-08-11T00:54:57.930Z,26.7
2022-08-11T00:55:08.015Z,26.7
2022-08-11T00:55:18.081Z,26.7
2022-08-11T00:55:28.075Z,26.7
2022-08-11T00:55:38.155Z,26.7
2022-08-11T00:55:58.643Z,26.7
2022-08-11T00:56:18.087Z,26.7
2022-08-11T00:56:28.077Z,26.7
2022-08-11T00:56:38.074Z,26.7
2022-08-11T00:56:48.085Z,26.7
2022-08-11T00:56:58.122Z,26.7
2022-08-11T00:57:30.144Z,26.7
2022-08-11T00:57:36.877Z,26.7
2022-08-11T00:57:37.610Z,26.7
2022-08-11T00:57:38.510Z,26.7
2022-08-11T00:57:48.157Z,26.7
2022-08-11T00:57:58.186Z,26.7
2022-08-11T00:58:08.196Z,26.7
2022-08-11T00:58:21.813Z,26.7
2022-08-11T00:58:28.279Z,26.7
2022-08-11T00:58:38.225Z,26.7
2022-08-11T00:58:50.664Z,26.7
2022-08-11T00:58:58.235Z,26.7
2022-08-11T00:59:34.656Z,26.7
2022-08-11T00:59:35.159Z,26.7
2022-08-11T00:59:35.169Z,26.7
2022-08-11T00:59:38.274Z,26.7
2022-08-11T00:59:48.343Z,26.7
2022-08-11T00:59:58.295Z,26.7
2022-08-11T01:00:08.344Z,26.6
2022-08-11T01:00:18.342Z,26.7
2022-08-11T01:00:28.348Z,26.7
2022-08-11T01:00:38.401Z,26.7
2022-08-11T01:00:48.439Z,26.7
2022-08-11T01:00:58.506Z,26.7
2022-08-11T01:01:08.444Z,26.7
2022-08-11T01:01:18.481Z,26.6
2022-08-11T01:01:28.510Z,26.6
2022-08-11T01:01:38.428Z,26.6
2022-08-11T01:01:48.443Z,26.7
2022-08-11T01:01:58.481Z,26.6
2022-08-11T01:02:08.549Z,26.7
2022-08-11T01:02:18.525Z,26.7
2022-08-11T01:02:30.697Z,26.7
2022-08-11T01:02:38.587Z,26.6
2022-08-11T01:02:48.493Z,26.7
2022-08-11T01:03:08.609Z,26.7
2022-08-11T01:03:18.539Z,26.7
2022-08-11T01:03:28.565Z,26.7
2022-08-11T01:03:38.568Z,26.7
2022-08-11T01:03:48.569Z,26.6
2022-08-11T01:03:58.583Z,26.6
2022-08-11T01:04:08.594Z,26.7
2022-08-11T01:04:18.613Z,26.7
2022-08-11T01:04:28.607Z,26.7
2022-08-11T01:04:38.672Z,26.7
2022-08-11T01:04:52.341Z,26.7
2022-08-11T01:04:58.675Z,26.6
2022-08-11T01:05:08.680Z,26.7
2022-08-11T01:05:18.677Z,26.6
2022-08-11T01:05:28.807Z,26.6
2022-08-11T01:05:38.703Z,26.7
2022-08-11T01:05:48.715Z,26.7
2022-08-11T01:05:58.726Z,26.6
2022-08-11T01:06:08.730Z,26.7
2022-08-11T01:06:18.761Z,26.7
2022-08-11T01:06:28.762Z,26.7
2022-08-11T01:06:38.834Z,26.7
2022-08-11T01:06:48.845Z,26.7
2022-08-11T01:08:00.469Z,26.7
2022-08-11T01:08:01.723Z,26.7
2022-08-11T01:08:02.740Z,26.6
2022-08-11T01:08:02.916Z,26.7
2022-08-11T01:08:03.257Z,26.7
2022-08-11T01:08:08.903Z,26.7
2022-08-11T01:08:18.911Z,26.6
2022-08-11T01:08:28.948Z,26.6
2022-08-11T01:08:38.938Z,26.6
2022-08-11T01:08:49.021Z,26.7
2022-08-11T01:09:08.982Z,26.6
2022-08-11T01:09:22.346Z,26.6
2022-08-11T01:09:28.993Z,26.6
2022-08-11T01:09:39.020Z,26.6
2022-08-11T01:09:49.061Z,26.6
2022-08-11T01:10:01.620Z,26.6
2022-08-11T01:10:10.188Z,26.6
2022-08-11T01:10:19.485Z,26.6
2022-08-11T01:10:29.179Z,26.6
2022-08-11T01:10:49.297Z,26.6
2022-08-11T01:11:09.179Z,26.6
2022-08-11T01:11:19.161Z,26.6
2022-08-11T01:11:29.210Z,26.6
2022-08-11T01:11:39.177Z,26.6
2022-08-11T01:11:59.221Z,26.6
2022-08-11T01:12:09.210Z,26.6
2022-08-11T01:12:19.245Z,26.6
2022-08-11T01:12:29.331Z,26.6
2022-08-11T01:12:39.451Z,26.6
2022-08-11T01:13:09.332Z,26.6
2022-08-11T01:13:19.411Z,26.6
2022-08-11T01:13:29.313Z,26.6
2022-08-11T01:13:39.384Z,26.6
2022-08-11T01:13:49.325Z,26.6
2022-08-11T01:13:59.335Z,26.6
2022-08-11T01:14:09.353Z,26.6
2022-08-11T01:14:19.439Z,26.6
2022-08-11T01:14:34.032Z,26.6
2022-08-11T01:14:39.392Z,26.6
2022-08-11T01:14:49.398Z,26.6
2022-08-11T01:14:59.399Z,26.6
2022-08-11T01:15:09.438Z,26.6
2022-08-11T01:15:19.445Z,26.6
2022-08-11T01:15:29.445Z,26.6
2022-08-11T01:15:39.453Z,26.6
2022-08-11T01:15:57.302Z,26.6
2022-08-11T01:15:59.477Z,26.6
2022-08-11T01:16:09.539Z,26.6
2022-08-11T01:16:19.525Z,26.6
2022-08-11T01:16:29.515Z,26.6
2022-08-11T01:16:39.524Z,26.6
2022-08-11T01:16:49.532Z,26.6
2022-08-11T01:16:59.553Z,26.6
2022-08-11T01:17:20.268Z,26.6
2022-08-11T01:17:29.634Z,26.5
2022-08-11T01:17:39.620Z,26.6
2022-08-11T01:17:49.609Z,26.5
2022-08-11T01:17:59.613Z,26.6
2022-08-11T01:18:09.618Z,26.6
2022-08-11T01:18:19.634Z,26.6
2022-08-11T01:18:29.909Z,26.6
2022-08-11T01:18:39.648Z,26.6
2022-08-11T01:18:49.711Z,26.5
2022-08-11T01:18:59.682Z,26.6
2022-08-11T01:19:09.690Z,26.6
2022-08-11T01:19:19.769Z,26.6
2022-08-11T01:19:29.726Z,26.6
2022-08-11T01:20:39.465Z,26.5
2022-08-11T01:20:44.567Z,26.6
2022-08-11T01:20:45.761Z,26.5
2022-08-11T01:20:47.464Z,26.6
2022-08-11T01:20:47.524Z,26.5
2022-08-11T01:20:48.490Z,26.5
2022-08-11T01:20:48.739Z,26.6
2022-08-11T01:20:59.827Z,26.5
2022-08-11T01:21:09.844Z,26.6
2022-08-11T01:21:19.844Z,26.5
2022-08-11T01:21:29.849Z,26.5
2022-08-11T01:21:39.894Z,26.5
2022-08-11T01:21:49.884Z,26.5
2022-08-11T01:22:00.065Z,26.5
2022-08-11T01:22:10.617Z,26.6
2022-08-11T01:22:30.009Z,26.6
2022-08-11T01:22:39.966Z,26.5
2022-08-11T01:23:00.045Z,26.5
2022-08-11T01:23:12.514Z,26.5
2022-08-11T01:23:19.977Z,26.5
2022-08-11T01:23:30.016Z,26.5
2022-08-11T01:23:40.051Z,26.5
2022-08-11T01:23:50.031Z,26.5
2022-08-11T01:24:00.050Z,26.5
2022-08-11T01:24:10.099Z,26.5
2022-08-11T01:24:20.062Z,26.5
2022-08-11T01:24:30.081Z,26.5
2022-08-11T01:24:40.089Z,26.5
2022-08-11T01:24:50.151Z,26.5
2022-08-11T01:25:10.125Z,26.5
2022-08-11T01:25:20.154Z,26.5
2022-08-11T01:25:30.154Z,26.5
2022-08-11T01:25:56.736Z,26.5
2022-08-11T01:25:56.940Z,26.5
2022-08-11T01:26:00.224Z,26.5
2022-08-11T01:26:10.240Z,26.5
2022-08-11T01:26:20.222Z,26.5
2022-08-11T01:26:30.276Z,26.5
2022-08-11T01:26:40.346Z,26.5
2022-08-11T01:26:50.290Z,26.5
2022-08-11T01:27:00.319Z,26.5
2022-08-11T01:27:19.164Z,26.5
2022-08-11T01:27:30.368Z,26.5
2022-08-11T01:27:40.281Z,26.5
2022-08-11T01:27:50.310Z,26.5
2022-08-11T01:28:00.329Z,26.5
2022-08-11T01:28:10.288Z,26.5
2022-08-11T01:28:20.318Z,26.5
2022-08-11T01:28:30.317Z,26.5
2022-08-11T01:28:40.358Z,26.5
2022-08-11T01:28:50.419Z,26.5
2022-08-11T01:29:00.358Z,26.5
2022-08-11T01:29:10.435Z,26.5
2022-08-11T01:29:20.401Z,26.5
2022-08-11T01:29:30.468Z,26.5
2022-08-11T01:29:40.432Z,26.5
2022-08-11T01:29:50.431Z,26.5
2022-08-11T01:30:00.480Z,26.5
2022-08-11T01:30:10.506Z,26.5
2022-08-11T01:30:20.440Z,26.5
2022-08-11T01:30:30.496Z,26.5
2022-08-11T01:30:40.533Z,26.5
2022-08-11T01:30:50.544Z,26.5
2022-08-11T01:31:00.578Z,26.5
2022-08-11T01:31:10.558Z,26.5
2022-08-11T01:31:23.397Z,26.5
2022-08-11T01:31:30.578Z,26.5
2022-08-11T01:31:40.609Z,26.5
2022-08-11T01:31:50.571Z,26.5
2022-08-11T01:32:00.558Z,26.5
2022-08-11T01:32:10.586Z,26.5
2022-08-11T01:32:20.595Z,26.5
2022-08-11T01:32:30.613Z,26.5
2022-08-11T01:32:40.626Z,26.5
2022-08-11T01:33:00.670Z,26.5
2022-08-11T01:33:10.666Z,26.5
2022-08-11T01:33:20.667Z,26.5
2022-08-11T01:33:30.708Z,26.5
2022-08-11T01:33:40.680Z,26.5
2022-08-11T01:33:50.777Z,26.5
2022-08-11T01:34:00.737Z,26.5
2022-08-11T01:34:20.937Z,26.5
2022-08-11T01:34:40.766Z,26.5
2022-08-11T01:34:50.822Z,26.5
2022-08-11T01:35:00.785Z,26.5
2022-08-11T01:35:10.846Z,26.5
2022-08-11T01:35:30.885Z,26.5
2022-08-11T01:35:40.843Z,26.4
2022-08-11T01:35:50.856Z,26.4
2022-08-11T01:36:00.929Z,26.4
2022-08-11T01:36:10.898Z,26.4
2022-08-11T01:36:20.901Z,26.5
2022-08-11T01:36:30.949Z,26.4
2022-08-11T01:36:40.960Z,26.5
2022-08-11T01:36:56.694Z,26.4
2022-08-11T01:37:00.945Z,26.5
2022-08-11T01:37:10.965Z,26.4
2022-08-11T01:37:20.990Z,26.4
2022-08-11T01:37:31.008Z,26.4
2022-08-11T01:37:40.991Z,26.4
2022-08-11T01:37:51.007Z,26.5
2022-08-11T01:38:01.039Z,26.4
2022-08-11T01:38:11.046Z,26.5
2022-08-11T01:38:21.106Z,26.4
2022-08-11T01:38:31.125Z,26.5
2022-08-11T01:38:41.073Z,26.5
2022-08-11T01:38:51.096Z,26.5
2022-08-11T01:39:01.132Z,26.4
2022-08-11T01:39:11.144Z,26.4
2022-08-11T01:39:21.312Z,26.5
2022-08-11T01:39:31.172Z,26.5
2022-08-11T01:39:41.236Z,26.5
2022-08-11T01:39:51.199Z,26.5
2022-08-11T01:40:01.190Z,26.5
2022-08-11T01:40:11.188Z,26.5
2022-08-11T01:40:21.226Z,26.5
2022-08-11T01:40:31.219Z,26.5
2022-08-11T01:40:41.212Z,26.5
2022-08-11T01:40:51.231Z,26.5
2022-08-11T01:41:01.278Z,26.5
2022-08-11T01:41:11.255Z,26.5
2022-08-11T01:41:21.270Z,26.5
2022-08-11T01:41:31.288Z,26.5
2022-08-11T01:41:41.300Z,26.4
2022-08-11T01:41:51.297Z,26.4
2022-08-11T01:42:01.332Z,26.4
2022-08-11T01:42:11.332Z,26.4
2022-08-11T01:42:21.337Z,26.4
2022-08-11T01:42:31.373Z,26.4
2022-08-11T01:42:41.415Z,26.4
2022-08-11T01:43:01.951Z,26.4
2022-08-11T01:43:11.416Z,26.4
2022-08-11T01:43:21.368Z,26.4
2022-08-11T01:43:31.403Z,26.4
2022-08-11T01:43:41.386Z,26.4
2022-08-11T01:43:51.387Z,26.4
2022-08-11T01:44:01.410Z,26.4
2022-08-11T01:44:12.777Z,26.4
2022-08-11T01:44:21.436Z,26.4
2022-08-11T01:44:31.453Z,26.4
2022-08-11T01:44:41.454Z,26.4
2022-08-11T01:44:51.482Z,26.4
2022-08-11T01:45:01.474Z,26.4
2022-08-11T01:45:11.489Z,26.4
2022-08-11T01:45:22.658Z,26.4
2022-08-11T01:45:32.543Z,26.4
2022-08-11T01:45:41.557Z,26.4
2022-08-11T01:45:51.544Z,26.4
2022-08-11T01:46:01.546Z,26.4
2022-08-11T01:46:11.559Z,26.4
2022-08-11T01:46:21.569Z,26.4
2022-08-11T01:46:31.576Z,26.4
2022-08-11T01:46:42.216Z,26.4
2022-08-11T01:46:51.674Z,26.4
2022-08-11T01:47:01.616Z,26.4
2022-08-11T01:47:11.625Z,26.4
2022-08-11T01:47:32.664Z,26.4
2022-08-11T01:47:52.861Z,26.4
2022-08-11T01:48:01.670Z,26.4
2022-08-11T01:48:11.679Z,26.4
2022-08-11T01:48:21.696Z,26.4
2022-08-11T01:48:31.703Z,26.4
2022-08-11T01:48:41.722Z,26.4
2022-08-11T01:48:51.735Z,26.4
2022-08-11T01:49:01.751Z,26.4
2022-08-11T01:50:02.898Z,26.4
2022-08-11T01:50:06.712Z,26.4
2022-08-11T01:50:08.105Z,26.4
2022-08-11T01:50:08.227Z,26.4
2022-08-11T01:50:08.522Z,26.4
2022-08-11T01:50:09.862Z,26.4
2022-08-11T01:50:11.967Z,26.4
2022-08-11T01:50:21.869Z,26.4
2022-08-11T01:50:41.992Z,26.4
2022-08-11T01:50:51.904Z,26.4
2022-08-11T01:51:01.905Z,26.4
2022-08-11T01:51:17.106Z,26.4
2022-08-11T01:51:21.950Z,26.4
2022-08-11T01:51:45.108Z,26.4
2022-08-11T01:51:51.960Z,26.4
2022-08-11T01:52:01.977Z,26.4
2022-08-11T01:52:12.042Z,26.4
2022-08-11T01:52:30.963Z,26.4
2022-08-11T01:52:35.200Z,26.4
2022-08-11T01:52:42.323Z,26.4
2022-08-11T01:53:02.087Z,26.4
2022-08-11T01:53:12.074Z,26.4
2022-08-11T01:53:22.070Z,26.4
2022-08-11T01:53:32.102Z,26.4
2022-08-11T01:53:42.116Z,26.4
2022-08-11T01:53:52.115Z,26.4
2022-08-11T01:54:02.234Z,26.4
2022-08-11T01:54:12.143Z,26.4
2022-08-11T01:54:22.169Z,26.4
2022-08-11T01:54:32.158Z,26.4
2022-08-11T01:54:42.177Z,26.4
2022-08-11T01:54:52.200Z,26.4
2022-08-11T01:55:02.200Z,26.4
2022-08-11T01:55:12.205Z,26.4
2022-08-11T01:55:22.220Z,26.4
2022-08-11T01:55:32.235Z,26.4
2022-08-11T01:55:42.249Z,26.4
2022-08-11T01:55:52.272Z,26.4
2022-08-11T01:56:02.267Z,26.4
2022-08-11T01:56:12.284Z,26.4
2022-08-11T01:56:22.378Z,26.4
2022-08-11T01:56:32.372Z,26.4
2022-08-11T01:56:42.331Z,26.4
2022-08-11T01:56:52.325Z,26.4
2022-08-11T01:57:02.331Z,26.4
2022-08-11T01:57:12.353Z,26.4
2022-08-11T01:57:22.353Z,26.4
2022-08-11T01:57:32.372Z,26.4
2022-08-11T01:57:42.424Z,26.4
2022-08-11T01:57:52.458Z,26.4
2022-08-11T01:58:02.438Z,26.3
2022-08-11T01:58:12.461Z,26.3
2022-08-11T01:58:43.228Z,26.3
2022-08-11T01:58:52.546Z,26.3
2022-08-11T01:59:02.481Z,26.3
2022-08-11T01:59:22.542Z,26.3
2022-08-11T01:59:32.496Z,26.3
2022-08-11T01:59:42.751Z,26.3
2022-08-11T02:00:22.653Z,26.3
2022-08-11T02:01:03.685Z,26.3
2022-08-11T02:01:22.823Z,26.4
2022-08-11T02:01:32.676Z,26.4
2022-08-11T02:01:42.691Z,26.3
2022-08-11T02:01:52.751Z,26.3
2022-08-11T02:02:02.803Z,26.3
2022-08-11T02:02:21.564Z,26.4
2022-08-11T02:02:22.750Z,26.3
2022-08-11T02:02:32.852Z,26.3
2022-08-11T02:02:42.759Z,26.4
2022-08-11T02:02:52.898Z,26.4
2022-08-11T02:03:02.864Z,26.4
2022-08-11T02:03:12.818Z,26.4
2022-08-11T02:03:32.832Z,26.3
2022-08-11T02:03:42.851Z,26.3
2022-08-11T02:03:52.941Z,26.3
2022-08-11T02:04:02.926Z,26.4
2022-08-11T02:04:12.904Z,26.3
2022-08-11T02:04:22.900Z,26.3
2022-08-11T02:04:32.938Z,26.3
2022-08-11T02:04:42.942Z,26.3
2022-08-11T02:04:52.946Z,26.3
2022-08-11T02:05:02.968Z,26.3
2022-08-11T02:05:12.978Z,26.3
2022-08-11T02:05:22.987Z,26.3
2022-08-11T02:05:32.981Z,26.3
2022-08-11T02:05:43.064Z,26.3
2022-08-11T02:05:53.039Z,26.3
2022-08-11T02:06:03.013Z,26.3
2022-08-11T02:06:13.063Z,26.3
2022-08-11T02:06:23.045Z,26.3
2022-08-11T02:06:33.047Z,26.3
2022-08-11T02:06:43.092Z,26.3
2022-08-11T02:07:03.175Z,26.3
2022-08-11T02:07:13.087Z,26.3
2022-08-11T02:07:23.114Z,26.3
2022-08-11T02:07:33.470Z,26.3
2022-08-11T02:07:53.169Z,26.3
2022-08-11T02:08:03.159Z,26.3
2022-08-11T02:08:13.186Z,26.3
2022-08-11T02:08:33.132Z,26.3
2022-08-11T02:08:33.766Z,26.3
2022-08-11T02:08:45.513Z,26.3
2022-08-11T02:08:53.244Z,26.3
2022-08-11T02:09:03.177Z,26.3
2022-08-11T02:09:13.199Z,26.3
2022-08-11T02:09:23.270Z,26.3
2022-08-11T02:09:33.241Z,26.3
2022-08-11T02:09:49.504Z,26.3
2022-08-11T02:09:53.277Z,26.3
2022-08-11T02:10:03.248Z,26.3
2022-08-11T02:10:13.280Z,26.3
2022-08-11T02:10:23.283Z,26.3
2022-08-11T02:10:35.515Z,26.3
2022-08-11T02:10:43.299Z,26.3
2022-08-11T02:11:04.796Z,26.3
2022-08-11T02:11:23.365Z,26.3
2022-08-11T02:11:35.774Z,26.3
2022-08-11T02:11:43.354Z,26.3
2022-08-11T02:11:53.352Z,26.3
2022-08-11T02:12:03.381Z,26.3
2022-08-11T02:12:13.374Z,26.3
2022-08-11T02:12:33.866Z,26.3
2022-08-11T02:12:53.954Z,26.3
2022-08-11T02:13:03.474Z,26.3
2022-08-11T02:13:13.472Z,26.3
2022-08-11T02:13:33.392Z,26.3
2022-08-11T02:13:35.506Z,26.3
2022-08-11T02:13:43.471Z,26.3
2022-08-11T02:13:53.478Z,26.3
2022-08-11T02:14:03.679Z,26.3
2022-08-11T02:14:13.495Z,26.3
2022-08-11T02:14:23.507Z,26.3
2022-08-11T02:14:33.520Z,26.3
2022-08-11T02:14:43.540Z,26.3
2022-08-11T02:15:04.920Z,26.3
2022-08-11T02:15:05.209Z,26.3
2022-08-11T02:15:13.689Z,26.3
2022-08-11T02:15:23.680Z,26.3
2022-08-11T02:15:33.589Z,26.3
2022-08-11T02:15:43.603Z,26.3
2022-08-11T02:15:53.624Z,26.3
2022-08-11T02:16:03.630Z,26.3
2022-08-11T02:16:13.634Z,26.3
2022-08-11T02:16:23.733Z,26.3
2022-08-11T02:16:33.653Z,26.3
2022-08-11T02:16:43.665Z,26.3
2022-08-11T02:16:53.682Z,26.3
2022-08-11T02:17:03.712Z,26.3
2022-08-11T02:17:13.711Z,26.3
2022-08-11T02:17:23.743Z,26.3
2022-08-11T02:17:33.811Z,26.3
2022-08-11T02:17:54.981Z,26.3
2022-08-11T02:18:24.407Z,26.3
2022-08-11T02:18:43.948Z,26.3
2022-08-11T02:18:53.861Z,26.3
2022-08-11T02:19:03.876Z,26.3
2022-08-11T02:19:13.903Z,26.3
2022-08-11T02:19:23.893Z,26.3
2022-08-11T02:19:33.901Z,26.3
2022-08-11T02:19:44.258Z,26.3
2022-08-11T02:19:53.950Z,26.3
2022-08-11T02:20:03.963Z,26.3
2022-08-11T02:20:13.942Z,26.3
2022-08-11T02:20:23.976Z,26.2
2022-08-11T02:20:33.970Z,26.2
2022-08-11T02:20:48.993Z,26.3
2022-08-11T02:20:54.005Z,26.3
2022-08-11T02:21:04.063Z,26.3
2022-08-11T02:21:14.011Z,26.2
2022-08-11T02:21:24.069Z,26.2
2022-08-11T02:21:34.069Z,26.3
2022-08-11T02:21:44.052Z,26.2
2022-08-11T02:21:54.075Z,26.2
2022-08-11T02:22:04.112Z,26.3
2022-08-11T02:22:14.086Z,26.2
2022-08-11T02:22:24.090Z,26.3
2022-08-11T02:22:34.109Z,26.3
2022-08-11T02:22:44.117Z,26.3
2022-08-11T02:22:54.138Z,26.3
2022-08-11T02:23:04.198Z,26.2
2022-08-11T02:23:14.156Z,26.3
2022-08-11T02:24:03.984Z,26.2
2022-08-11T02:24:04.056Z,26.2